createdAt,value
2023-09-01T00:01:51.917Z,2.03
2023-09-01T00:04:58.992Z,1.73
2023-09-01T00:07:44.385Z,1.10
2023-09-01T00:10:30.196Z,2.60
2023-09-01T00:13:15.935Z,1.80
2023-09-01T00:16:01.313Z,3.70
2023-09-01T00:18:46.675Z,2.60
2023-09-01T00:21:32.133Z,2.30
2023-09-01T00:24:17.468Z,2.20
2023-09-01T00:27:03.143Z,2.83
2023-09-01T00:29:48.789Z,2.60
2023-09-01T00:32:34.226Z,2.23
2023-09-01T00:35:19.718Z,1.77
2023-09-01T00:38:05.118Z,4.63
2023-09-01T00:40:51.029Z,2.33
2023-09-01T00:43:36.415Z,1.63
2023-09-01T00:46:21.781Z,4.30
2023-09-01T00:49:07.173Z,1.23
2023-09-01T00:51:52.807Z,1.60
2023-09-01T00:54:38.553Z,2.17
2023-09-01T00:57:24.022Z,1.60
2023-09-01T01:00:09.791Z,1.57
2023-09-01T01:02:56.753Z,1.53
2023-09-01T01:05:57.536Z,1.20
2023-09-01T01:08:48.855Z,1.40
2023-09-01T01:12:00.093Z,1.10
2023-09-01T01:14:52.495Z,1.20
2023-09-01T01:17:44.266Z,2.77
2023-09-01T01:20:39.466Z,1.90
2023-09-01T01:23:25.021Z,1.77
2023-09-01T01:26:16.040Z,1.20
2023-09-01T01:29:01.995Z,1.37
2023-09-01T01:31:47.697Z,2.30
2023-09-01T01:34:38.290Z,2.47
2023-09-01T01:37:34.034Z,1.50
2023-09-01T01:40:21.545Z,1.50
2023-09-01T01:43:11.386Z,2.07
2023-09-01T01:45:57.816Z,1.53
2023-09-01T01:48:43.520Z,1.63
2023-09-01T01:51:28.913Z,1.73
2023-09-01T01:54:14.515Z,1.23
2023-09-01T01:57:00.665Z,1.43
2023-09-01T01:59:46.453Z,2.00
2023-09-01T02:02:31.941Z,1.63
2023-09-01T02:05:17.327Z,1.67
2023-09-01T02:08:07.118Z,1.73
2023-09-01T02:10:52.745Z,1.80
2023-09-01T02:13:38.099Z,1.67
2023-09-01T02:16:26.616Z,2.17
2023-09-01T02:19:13.272Z,1.47
2023-09-01T02:21:58.837Z,3.27
2023-09-01T02:24:44.133Z,1.73
2023-09-01T02:27:30.017Z,1.40
2023-09-01T02:30:15.624Z,1.90
2023-09-01T02:33:01.308Z,1.23
2023-09-01T02:35:49.266Z,4.20
2023-09-01T02:38:34.772Z,1.50
2023-09-01T02:41:21.059Z,1.30
2023-09-01T02:44:06.849Z,1.80
2023-09-01T02:46:52.159Z,1.00
2023-09-01T02:49:37.616Z,1.77
2023-09-01T02:52:22.874Z,1.57
2023-09-01T02:55:09.672Z,1.67
2023-09-01T02:57:55.221Z,1.60
2023-09-01T03:00:40.775Z,1.67
2023-09-01T03:03:26.145Z,1.17
2023-09-01T03:06:11.758Z,1.80
2023-09-01T03:08:58.337Z,1.70
2023-09-01T03:11:43.644Z,1.77
2023-09-01T03:14:28.919Z,1.83
2023-09-01T03:17:14.499Z,1.20
2023-09-01T03:19:59.925Z,1.40
2023-09-01T03:22:45.388Z,1.37
2023-09-01T03:25:30.786Z,2.80
2023-09-01T03:28:16.315Z,1.87
2023-09-01T03:31:02.090Z,1.37
2023-09-01T03:33:49.423Z,2.60
2023-09-01T03:36:34.760Z,1.07
2023-09-01T03:39:20.177Z,1.00
2023-09-01T03:42:05.663Z,1.50
2023-09-01T03:44:50.890Z,1.70
2023-09-01T03:47:36.303Z,1.33
2023-09-01T03:50:21.617Z,1.53
2023-09-01T03:53:06.950Z,0.90
2023-09-01T03:55:52.407Z,1.17
2023-09-01T03:58:41.781Z,2.10
2023-09-01T04:01:28.221Z,0.93
2023-09-01T04:04:14.592Z,2.37
2023-09-01T04:07:00.074Z,1.97
2023-09-01T04:09:45.338Z,1.33
2023-09-01T04:12:30.772Z,1.17
2023-09-01T04:15:16.422Z,3.03
2023-09-01T04:18:02.113Z,2.27
2023-09-01T04:20:49.139Z,1.33
2023-09-01T04:23:34.896Z,1.00
2023-09-01T04:26:21.782Z,1.27
2023-09-01T04:29:08.028Z,2.47
2023-09-01T04:31:54.317Z,7.73
2023-09-01T04:34:40.060Z,3.90
2023-09-01T04:37:26.168Z,3.83
2023-09-01T04:40:12.452Z,3.63
2023-09-01T04:42:58.628Z,2.70
2023-09-01T04:45:46.653Z,6.77
2023-09-01T04:48:32.802Z,4.87
2023-09-01T04:51:18.384Z,8.97
2023-09-01T04:54:04.357Z,6.67
2023-09-01T04:56:50.073Z,6.53
2023-09-01T04:59:35.575Z,6.57
2023-09-01T05:02:21.112Z,7.77
2023-09-01T05:05:07.874Z,5.93
2023-09-01T05:07:53.824Z,4.47
2023-09-01T05:10:39.459Z,4.10
2023-09-01T05:13:27.271Z,5.33
2023-09-01T05:16:14.559Z,5.20
2023-09-01T05:18:59.816Z,5.10
2023-09-01T05:21:45.254Z,7.70
2023-09-01T05:24:30.468Z,4.20
2023-09-01T05:27:21.285Z,6.70
2023-09-01T05:30:07.719Z,4.13
2023-09-01T05:32:53.533Z,7.67
2023-09-01T05:35:39.283Z,4.87
2023-09-01T05:38:25.459Z,9.90
2023-09-01T05:41:14.173Z,8.57
2023-09-01T05:43:59.777Z,10.83
2023-09-01T05:46:45.629Z,12.77
2023-09-01T05:49:32.913Z,6.80
2023-09-01T05:52:18.611Z,8.33
2023-09-01T05:55:04.250Z,4.60
2023-09-01T05:57:49.438Z,6.60
2023-09-01T06:00:35.402Z,10.37
2023-09-01T06:03:20.968Z,6.13
2023-09-01T06:06:08.710Z,5.93
2023-09-01T06:08:54.119Z,3.57
2023-09-01T06:11:40.282Z,6.70
2023-09-01T06:14:26.061Z,8.60
2023-09-01T06:17:11.460Z,6.80
2023-09-01T06:19:56.924Z,5.80
2023-09-01T06:22:42.378Z,5.63
2023-09-01T06:25:27.859Z,5.47
2023-09-01T06:28:14.737Z,13.07
2023-09-01T06:31:00.421Z,7.57
2023-09-01T06:33:46.008Z,6.67
2023-09-01T06:36:31.498Z,5.27
2023-09-01T06:39:19.610Z,3.00
2023-09-01T06:42:05.981Z,6.17
2023-09-01T06:44:52.526Z,8.43
2023-09-01T06:47:38.097Z,4.97
2023-09-01T06:50:23.521Z,7.53
2023-09-01T06:53:09.284Z,4.27
2023-09-01T06:55:54.443Z,4.97
2023-09-01T06:58:40.165Z,5.23
2023-09-01T07:01:25.644Z,5.47
2023-09-01T07:04:11.414Z,4.37
2023-09-01T07:06:56.956Z,4.20
2023-09-01T07:09:42.446Z,4.43
2023-09-01T07:12:27.841Z,4.80
2023-09-01T07:15:13.325Z,4.63
2023-09-01T07:17:58.517Z,3.63
2023-09-01T07:20:46.998Z,6.57
2023-09-01T07:23:32.823Z,6.50
2023-09-01T07:26:18.240Z,5.17
2023-09-01T07:29:03.743Z,6.27
2023-09-01T07:31:49.415Z,5.13
2023-09-01T07:34:35.388Z,3.80
2023-09-01T07:37:20.893Z,5.23
2023-09-01T07:40:07.167Z,4.93
2023-09-01T07:42:53.036Z,5.30
2023-09-01T07:45:38.576Z,4.67
2023-09-01T07:48:24.411Z,8.47
2023-09-01T07:51:09.942Z,5.27
2023-09-01T07:53:55.852Z,5.33
2023-09-01T07:56:41.998Z,3.20
2023-09-01T07:59:27.707Z,3.90
2023-09-01T08:02:13.491Z,4.77
2023-09-01T08:04:59.252Z,4.47
2023-09-01T08:07:44.848Z,5.50
2023-09-01T08:10:31.789Z,5.37
2023-09-01T08:13:18.464Z,5.07
2023-09-01T08:16:04.148Z,3.03
2023-09-01T08:18:49.693Z,5.03
2023-09-01T08:21:35.162Z,3.40
2023-09-01T08:24:21.142Z,4.87
2023-09-01T08:27:07.272Z,3.30
2023-09-01T08:29:52.882Z,6.00
2023-09-01T08:32:42.356Z,6.17
2023-09-01T08:35:28.566Z,5.60
2023-09-01T08:38:14.154Z,4.30
2023-09-01T08:41:08.804Z,4.33
2023-09-01T08:43:58.989Z,4.80
2023-09-01T08:46:47.292Z,3.50
2023-09-01T08:49:35.059Z,4.43
2023-09-01T08:52:20.596Z,4.30
2023-09-01T08:55:06.651Z,2.47
2023-09-01T08:57:52.991Z,3.20
2023-09-01T09:00:38.522Z,6.67
2023-09-01T09:03:23.958Z,3.43
2023-09-01T09:06:13.772Z,5.47
2023-09-01T09:09:15.548Z,5.10
2023-09-01T09:12:01.454Z,5.43
2023-09-01T09:14:58.789Z,3.10
2023-09-01T09:17:46.761Z,5.03
2023-09-01T09:20:39.312Z,3.97
2023-09-01T09:23:45.684Z,4.53
2023-09-01T09:26:32.555Z,3.27
2023-09-01T09:29:17.840Z,4.73
2023-09-01T09:32:16.480Z,3.63
2023-09-01T09:35:13.783Z,4.83
2023-09-01T09:38:00.799Z,3.60
2023-09-01T09:41:06.292Z,2.67
2023-09-01T09:43:51.767Z,3.53
2023-09-01T09:46:42.756Z,3.13
2023-09-01T09:49:32.190Z,3.63
2023-09-01T09:52:18.638Z,4.50
2023-09-01T09:55:09.119Z,4.67
2023-09-01T09:58:08.556Z,4.37
2023-09-01T10:01:04.024Z,3.00
2023-09-01T10:03:50.785Z,5.17
2023-09-01T10:06:36.860Z,3.77
2023-09-01T10:09:22.322Z,2.80
2023-09-01T10:12:08.237Z,4.83
2023-09-01T10:14:55.394Z,4.60
2023-09-01T10:17:43.414Z,3.33
2023-09-01T10:20:31.139Z,5.20
2023-09-01T10:23:16.378Z,3.23
2023-09-01T10:26:18.833Z,2.57
2023-09-01T10:29:06.185Z,2.67
2023-09-01T10:32:18.414Z,2.47
2023-09-01T10:35:05.064Z,4.60
2023-09-01T10:38:18.796Z,3.50
2023-09-01T10:41:04.789Z,3.30
2023-09-01T10:43:54.665Z,3.20
2023-09-01T10:46:40.183Z,5.33
2023-09-01T10:49:58.321Z,2.63
2023-09-01T10:52:44.141Z,3.53
2023-09-01T10:55:34.339Z,3.90
2023-09-01T10:58:19.592Z,3.40
2023-09-01T11:01:31.996Z,3.63
2023-09-01T11:04:17.413Z,1.77
2023-09-01T11:07:09.278Z,2.50
2023-09-01T11:09:57.567Z,3.93
2023-09-01T11:12:42.804Z,1.73
2023-09-01T11:15:28.249Z,1.90
2023-09-01T11:18:21.355Z,3.23
2023-09-01T11:21:09.505Z,5.50
2023-09-01T11:24:01.914Z,3.13
2023-09-01T11:26:48.365Z,1.38
2023-09-01T11:29:34.029Z,1.70
2023-09-01T11:32:28.263Z,2.07
2023-09-01T11:35:28.844Z,4.17
2023-09-01T11:38:19.734Z,1.83
2023-09-01T11:41:08.378Z,2.60
2023-09-01T11:43:57.848Z,2.17
2023-09-01T11:46:45.732Z,2.50
2023-09-01T11:49:31.641Z,1.37
2023-09-01T11:52:17.121Z,2.17
2023-09-01T11:55:02.497Z,3.97
2023-09-01T11:57:54.921Z,2.27
2023-09-01T12:00:42.988Z,4.60
2023-09-01T12:03:38.135Z,3.97
2023-09-01T12:06:29.269Z,3.43
2023-09-01T12:09:17.366Z,1.63
2023-09-01T12:12:04.313Z,3.17
2023-09-01T12:15:06.406Z,2.23
2023-09-01T12:17:51.994Z,3.03
2023-09-01T12:20:38.460Z,4.70
2023-09-01T12:23:33.456Z,2.57
2023-09-01T12:26:19.645Z,1.90
2023-09-01T12:29:06.685Z,5.07
2023-09-01T12:31:52.577Z,3.07
2023-09-01T12:34:38.250Z,3.57
2023-09-01T12:37:26.212Z,2.00
2023-09-01T12:40:11.840Z,2.67
2023-09-01T12:42:57.545Z,2.47
2023-09-01T12:45:43.760Z,5.33
2023-09-01T12:48:29.368Z,5.47
2023-09-01T12:51:14.738Z,3.77
2023-09-01T12:54:09.742Z,1.83
2023-09-01T12:57:01.182Z,3.37
2023-09-01T12:59:46.398Z,2.23
2023-09-01T13:02:31.841Z,2.37
2023-09-01T13:05:21.775Z,4.13
2023-09-01T13:08:07.247Z,1.93
2023-09-01T13:10:52.524Z,5.50
2023-09-01T13:13:38.550Z,5.57
2023-09-01T13:16:29.825Z,4.53
2023-09-01T13:19:15.443Z,1.80
2023-09-01T13:22:01.539Z,3.23
2023-09-01T13:24:47.147Z,3.33
2023-09-01T13:27:33.856Z,2.10
2023-09-01T13:30:20.577Z,2.27
2023-09-01T13:33:07.284Z,2.37
2023-09-01T13:35:55.070Z,2.60
2023-09-01T13:38:40.831Z,4.03
2023-09-01T13:41:26.404Z,3.70
2023-09-01T13:44:11.730Z,1.83
2023-09-01T13:46:57.515Z,1.73
2023-09-01T13:49:44.138Z,1.43
2023-09-01T13:52:29.972Z,1.90
2023-09-01T13:55:15.616Z,5.30
2023-09-01T13:58:00.622Z,2.17
2023-09-01T14:00:46.083Z,1.73
2023-09-01T14:03:32.313Z,1.87
2023-09-01T14:06:17.870Z,4.03
2023-09-01T14:09:05.460Z,1.10
2023-09-01T14:11:50.711Z,1.73
2023-09-01T14:14:36.189Z,2.47
2023-09-01T14:17:23.223Z,1.47
2023-09-01T14:20:09.651Z,2.07
2023-09-01T14:22:55.217Z,2.23
2023-09-01T14:25:41.481Z,3.37
2023-09-01T14:28:27.973Z,14.20
2023-09-01T14:31:15.139Z,8.90
2023-09-01T14:34:00.833Z,4.73
2023-09-01T14:36:46.177Z,7.83
2023-09-01T14:39:31.628Z,6.93
2023-09-01T14:42:16.883Z,5.77
2023-09-01T14:45:02.451Z,6.80
2023-09-01T14:47:47.845Z,5.97
2023-09-01T14:50:35.217Z,10.37
2023-09-01T14:53:20.754Z,6.07
2023-09-01T14:56:09.873Z,3.63
2023-09-01T14:58:57.260Z,6.77
2023-09-01T15:01:42.901Z,4.03
2023-09-01T15:04:28.582Z,3.60
2023-09-01T15:07:13.775Z,5.23
2023-09-01T15:09:59.284Z,7.43
2023-09-01T15:12:45.127Z,4.47
2023-09-01T15:15:30.602Z,5.13
2023-09-01T15:18:16.083Z,6.73
2023-09-01T15:21:09.614Z,4.50
2023-09-01T15:23:55.126Z,4.23
2023-09-01T15:26:40.603Z,3.20
2023-09-01T15:29:25.830Z,5.27
2023-09-01T15:32:11.356Z,2.63
2023-09-01T15:35:09.181Z,3.73
2023-09-01T15:38:02.779Z,3.77
2023-09-01T15:40:48.441Z,3.67
2023-09-01T15:43:33.970Z,3.50
2023-09-01T15:46:19.799Z,2.60
2023-09-01T15:49:05.366Z,3.87
2023-09-01T15:51:50.708Z,3.50
2023-09-01T15:54:35.983Z,2.87
2023-09-01T15:57:21.877Z,7.07
2023-09-01T16:00:09.568Z,4.13
2023-09-01T16:02:55.068Z,4.90
2023-09-01T16:05:41.030Z,3.10
2023-09-01T16:08:26.477Z,4.10
2023-09-01T16:11:11.874Z,4.60
2023-09-01T16:13:57.784Z,6.00
2023-09-01T16:16:43.304Z,4.47
2023-09-01T16:19:29.221Z,6.97
2023-09-01T16:22:14.707Z,3.80
2023-09-01T16:25:00.161Z,3.60
2023-09-01T16:27:46.240Z,10.70
2023-09-01T16:30:33.252Z,3.80
2023-09-01T16:33:18.738Z,5.87
2023-09-01T16:36:04.465Z,3.13
2023-09-01T16:38:50.180Z,2.03
2023-09-01T16:41:36.026Z,4.97
2023-09-01T16:44:21.541Z,2.33
2023-09-01T16:47:06.613Z,4.30
2023-09-01T16:49:51.884Z,2.63
2023-09-01T16:52:38.328Z,2.27
2023-09-01T16:55:23.740Z,2.90
2023-09-01T16:58:09.598Z,3.13
2023-09-01T17:00:55.025Z,3.00
2023-09-01T17:03:40.375Z,2.43
2023-09-01T17:06:25.851Z,1.63
2023-09-01T17:09:11.167Z,2.47
2023-09-01T17:11:56.639Z,3.33
2023-09-01T17:14:42.611Z,2.03
2023-09-01T17:17:28.182Z,2.17
2023-09-01T17:20:17.605Z,2.87
2023-09-01T17:23:04.503Z,2.90
2023-09-01T17:25:50.121Z,4.00
2023-09-01T17:28:38.294Z,2.50
2023-09-01T17:31:24.014Z,2.83
2023-09-01T17:34:09.386Z,1.60
2023-09-01T17:36:54.814Z,2.93
2023-09-01T17:39:40.334Z,1.30
2023-09-01T17:42:26.248Z,2.13
2023-09-01T17:45:11.928Z,1.73
2023-09-01T17:47:57.303Z,1.80
2023-09-01T17:50:42.978Z,2.30
2023-09-01T17:53:29.646Z,1.20
2023-09-01T17:56:15.050Z,1.70
2023-09-01T17:59:00.473Z,2.57
2023-09-01T18:01:52.680Z,1.93
2023-09-01T18:04:38.427Z,3.50
2023-09-01T18:07:25.931Z,1.77
2023-09-01T18:10:11.688Z,2.70
2023-09-01T18:12:57.123Z,1.67
2023-09-01T18:15:43.203Z,1.70
2023-09-01T18:18:28.772Z,1.30
2023-09-01T18:21:15.504Z,3.10
2023-09-01T18:24:11.309Z,3.33
2023-09-01T18:26:57.356Z,1.57
2023-09-01T18:29:43.223Z,2.00
2023-09-01T18:32:29.703Z,3.60
2023-09-01T18:35:15.479Z,2.80
2023-09-01T18:38:04.316Z,4.20
2023-09-01T18:40:52.869Z,4.93
2023-09-01T18:43:42.096Z,6.10
2023-09-01T18:46:32.406Z,5.80
2023-09-01T18:49:18.175Z,4.87
2023-09-01T18:52:04.881Z,4.90
2023-09-01T18:54:51.242Z,7.17
2023-09-01T18:57:37.021Z,7.17
2023-09-01T19:00:28.288Z,4.93
2023-09-01T19:03:21.102Z,6.73
2023-09-01T19:06:08.628Z,5.78
2023-09-01T19:08:55.658Z,6.37
2023-09-01T19:11:45.451Z,3.73
2023-09-01T19:14:30.938Z,6.63
2023-09-01T19:17:18.694Z,4.43
2023-09-01T19:20:20.007Z,5.50
2023-09-01T19:23:28.252Z,10.53
2023-09-01T19:26:21.547Z,5.53
2023-09-01T19:29:14.113Z,4.43
2023-09-01T19:31:59.661Z,3.97
2023-09-01T19:34:45.028Z,6.57
2023-09-01T19:37:30.368Z,5.20
2023-09-01T19:40:15.922Z,6.40
2023-09-01T19:43:07.156Z,5.83
2023-09-01T19:45:53.923Z,5.10
2023-09-01T19:48:40.831Z,4.53
2023-09-01T19:51:26.324Z,3.93
2023-09-01T19:54:17.102Z,4.27
2023-09-01T19:57:03.155Z,5.53
2023-09-01T19:59:51.463Z,7.03
2023-09-01T20:02:37.047Z,3.83
2023-09-01T20:05:24.120Z,4.47
2023-09-01T20:08:09.269Z,6.97
2023-09-01T20:10:54.763Z,5.83
2023-09-01T20:13:42.549Z,2.73
2023-09-01T20:16:30.933Z,5.40
2023-09-01T20:19:21.747Z,3.77
2023-09-01T20:22:07.192Z,7.37
2023-09-01T20:24:53.151Z,7.03
2023-09-01T20:27:39.084Z,5.47
2023-09-01T20:30:25.476Z,4.60
2023-09-01T20:33:11.374Z,3.00
2023-09-01T20:35:56.603Z,4.40
2023-09-01T20:38:44.170Z,8.07
2023-09-01T20:41:30.113Z,9.73
2023-09-01T20:44:16.092Z,6.50
2023-09-01T20:47:02.020Z,9.77
2023-09-01T20:49:47.551Z,7.47
2023-09-01T20:52:38.033Z,7.97
2023-09-01T20:55:23.512Z,5.37
2023-09-01T20:58:09.027Z,4.70
2023-09-01T21:00:55.109Z,6.77
2023-09-01T21:03:41.543Z,6.80
2023-09-01T21:06:26.968Z,5.70
2023-09-01T21:09:12.396Z,5.17
2023-09-01T21:11:58.275Z,4.93
2023-09-01T21:14:43.604Z,5.53
2023-09-01T21:17:29.056Z,4.50
2023-09-01T21:20:14.699Z,5.97
2023-09-01T21:23:00.391Z,5.63
2023-09-01T21:25:45.689Z,6.60
2023-09-01T21:28:33.069Z,5.83
2023-09-01T21:31:18.992Z,3.70
2023-09-01T21:34:04.742Z,4.93
2023-09-01T21:36:50.104Z,5.53
2023-09-01T21:39:35.511Z,6.37
2023-09-01T21:42:20.958Z,5.30
2023-09-01T21:45:07.228Z,5.87
2023-09-01T21:47:52.940Z,7.57
2023-09-01T21:50:38.892Z,3.67
2023-09-01T21:53:25.007Z,4.90
2023-09-01T21:56:10.575Z,4.00
2023-09-01T21:58:56.117Z,5.60
2023-09-01T22:01:41.758Z,4.77
2023-09-01T22:04:27.033Z,5.10
2023-09-01T22:07:12.570Z,5.90
2023-09-01T22:09:58.924Z,4.77
2023-09-01T22:12:44.506Z,4.27
2023-09-01T22:15:30.629Z,4.40
2023-09-01T22:18:16.092Z,3.47
2023-09-01T22:21:01.454Z,3.10
2023-09-01T22:23:46.838Z,4.17
2023-09-01T22:26:36.951Z,3.30
2023-09-01T22:29:22.472Z,5.00
2023-09-01T22:32:11.114Z,8.67
2023-09-01T22:34:56.501Z,4.37
2023-09-01T22:37:42.006Z,4.73
2023-09-01T22:40:27.334Z,5.63
2023-09-01T22:43:17.117Z,3.53
2023-09-01T22:46:02.997Z,4.53
2023-09-01T22:48:48.331Z,4.37
2023-09-01T22:51:33.875Z,4.87
2023-09-01T22:54:19.443Z,3.87
2023-09-01T22:57:05.060Z,3.20
2023-09-01T22:59:53.875Z,4.13
2023-09-01T23:02:39.708Z,4.60
2023-09-01T23:05:25.006Z,3.00
2023-09-01T23:08:10.478Z,3.97
2023-09-01T23:10:55.809Z,4.00
2023-09-01T23:13:41.027Z,3.90
2023-09-01T23:16:26.352Z,4.67
2023-09-01T23:19:11.939Z,3.27
2023-09-01T23:21:57.361Z,3.23
2023-09-01T23:24:42.731Z,3.03
2023-09-01T23:27:28.102Z,4.33
2023-09-01T23:30:14.994Z,2.97
2023-09-01T23:33:00.644Z,2.97
2023-09-01T23:35:46.004Z,3.33
2023-09-01T23:38:32.307Z,3.63
2023-09-01T23:41:17.620Z,2.83
2023-09-01T23:44:03.664Z,2.50
2023-09-01T23:46:49.009Z,2.97
2023-09-01T23:49:34.409Z,2.53
2023-09-01T23:52:19.760Z,2.50
2023-09-01T23:55:05.745Z,3.97
2023-09-01T23:57:51.308Z,2.40
